Time;durP1;ratioP1;P1;durP2;ratioP2;P2;SDS_P1;SDS_P2;PMS_P1;PMS_P2;Temp;Humidity;BMP_temperature;BMP_pressure;BME280_temperature;BME280_humidity;BME280_pressure;Samples;Min_cycle;Max_cycle;Signal;HPM_P1;HPM_P2
2023/06/22 00:01:45;;;;;;;4.53;2.85;;;;;;;17.91;100.00;101802.84;5026374;28;20428;-61
2023/06/22 00:04:10;;;;;;;4.88;3.28;;;;;;;17.84;100.00;101789.13;5011019;28;20044;-61
2023/06/22 00:06:36;;;;;;;4.35;2.72;;;;;;;17.82;100.00;101794.09;5015317;28;20686;-61
2023/06/22 00:09:01;;;;;;;4.43;2.88;;;;;;;17.86;100.00;101797.22;5015792;28;20045;-61
2023/06/22 00:11:27;;;;;;;6.90;3.30;;;;;;;17.82;100.00;101793.25;5021347;28;20030;-61
2023/06/22 00:13:53;;;;;;;5.95;3.40;;;;;;;17.80;100.00;101787.13;5015333;28;20050;-61
2023/06/22 00:16:18;;;;;;;4.43;3.08;;;;;;;17.81;100.00;101788.81;5017569;28;20067;-61
2023/06/22 00:18:47;;;;;;;3.78;3.17;;;;;;;17.71;100.00;101785.84;5026351;28;20029;-59
2023/06/22 00:21:13;;;;;;;5.38;3.70;;;;;;;17.66;100.00;101794.09;5023903;28;20032;-61
2023/06/22 00:23:38;;;;;;;5.93;3.70;;;;;;;17.60;100.00;101793.19;5026141;28;20403;-61
2023/06/22 00:26:03;;;;;;;4.53;3.92;;;;;;;17.64;100.00;101791.59;5027454;28;20057;-61
2023/06/22 00:28:29;;;;;;;6.82;4.40;;;;;;;17.57;100.00;101796.47;5026324;28;20025;-61
2023/06/22 00:30:54;;;;;;;6.07;4.60;;;;;;;17.52;100.00;101801.94;5027848;28;20480;-61
2023/06/22 00:33:19;;;;;;;7.07;5.20;;;;;;;17.53;100.00;101792.50;5020806;28;20026;-61
2023/06/22 00:35:45;;;;;;;6.55;5.15;;;;;;;17.58;100.00;101790.66;5027055;28;20476;-61
2023/06/22 00:38:11;;;;;;;7.03;4.40;;;;;;;17.51;100.00;101791.94;5025658;28;20033;-61
2023/06/22 00:40:36;;;;;;;6.05;4.93;;;;;;;17.48;100.00;101793.25;5027088;28;20021;-61
2023/06/22 00:43:02;;;;;;;6.22;4.65;;;;;;;17.42;100.00;101799.84;5023852;28;20025;-61
2023/06/22 00:45:27;;;;;;;6.07;4.68;;;;;;;17.37;100.00;101791.44;5021436;28;20025;-60
2023/06/22 00:47:55;;;;;;;6.63;5.32;;;;;;;17.33;100.00;101791.09;5018304;28;20038;-61
2023/06/22 00:50:23;;;;;;;8.15;5.05;;;;;;;17.28;100.00;101793.78;5020050;28;20686;-61
2023/06/22 00:52:51;;;;;;;7.05;5.30;;;;;;;17.28;100.00;101792.94;5010575;28;20067;-61
2023/06/22 00:55:17;;;;;;;6.60;5.30;;;;;;;17.24;100.00;101789.84;5025050;28;20116;-61
2023/06/22 00:57:45;;;;;;;6.40;4.80;;;;;;;17.25;100.00;101796.25;5010922;28;20101;-61
2023/06/22 01:00:18;;;;;;;6.80;5.38;;;;;;;17.22;100.00;101789.25;5005664;28;20026;-61
2023/06/22 01:02:49;;;;;;;6.82;5.60;;;;;;;17.17;100.00;101788.31;5016135;28;20030;-61
2023/06/22 01:05:15;;;;;;;7.85;6.28;;;;;;;17.09;100.00;101787.66;5021882;28;20055;-61
2023/06/22 01:08:16;;;;;;;8.15;6.53;;;;;;;17.12;100.00;101780.75;5012740;28;20075;-61
2023/06/22 01:10:45;;;;;;;8.30;6.45;;;;;;;17.07;100.00;101775.09;5027124;28;20124;-61
2023/06/22 01:13:51;;;;;;;10.52;6.53;;;;;;;17.08;100.00;101772.09;5023352;28;20045;-61
2023/06/22 01:16:28;;;;;;;9.88;7.00;;;;;;;17.00;100.00;101774.44;5024465;28;20045;-61
2023/06/22 01:18:57;;;;;;;8.10;6.97;;;;;;;16.93;100.00;101769.06;5027293;28;20076;-61
2023/06/22 01:21:25;;;;;;;8.57;7.43;;;;;;;16.97;100.00;101775.75;5023604;28;20037;-61
2023/06/22 01:24:09;;;;;;;7.97;7.13;;;;;;;17.01;100.00;101774.19;5015937;28;20121;-61
2023/06/22 01:26:47;;;;;;;8.93;7.40;;;;;;;17.01;100.00;101776.13;5007095;28;20440;-61
2023/06/22 01:29:14;;;;;;;9.02;7.88;;;;;;;16.99;100.00;101775.53;5004856;28;20033;-61
2023/06/22 01:31:42;;;;;;;9.05;7.65;;;;;;;16.98;100.00;101784.94;5025088;28;20035;-61
2023/06/22 01:34:08;;;;;;;9.20;8.30;;;;;;;16.99;100.00;101779.16;5024375;28;20065;-61
2023/06/22 01:36:35;;;;;;;8.80;8.00;;;;;;;16.98;100.00;101784.94;5016874;28;20378;-61
2023/06/22 01:39:01;;;;;;;9.50;8.50;;;;;;;16.99;100.00;101781.09;5021628;28;20040;-61
2023/06/22 01:41:28;;;;;;;9.25;8.27;;;;;;;17.01;100.00;101784.44;5006783;28;20030;-60
2023/06/22 01:43:55;;;;;;;10.20;9.02;;;;;;;17.04;100.00;101782.00;5010822;28;20088;-61
2023/06/22 01:46:21;;;;;;;9.98;8.40;;;;;;;17.03;100.00;101779.47;5021346;28;20034;-61
2023/06/22 01:48:47;;;;;;;9.10;8.10;;;;;;;17.02;100.00;101778.63;5007195;28;20044;-61
2023/06/22 01:51:13;;;;;;;9.15;8.10;;;;;;;17.02;100.00;101786.97;5006996;28;20029;-61
2023/06/22 01:53:38;;;;;;;9.60;8.70;;;;;;;17.01;100.00;101779.72;5019973;28;20065;-61
2023/06/22 01:56:04;;;;;;;9.02;8.00;;;;;;;17.05;100.00;101772.59;5024855;28;20099;-61
2023/06/22 01:58:31;;;;;;;9.95;8.48;;;;;;;17.02;100.00;101770.31;5015625;28;20041;-61
2023/06/22 02:01:07;;;;;;;9.83;8.60;;;;;;;17.02;100.00;101767.53;5020973;28;20451;-61
2023/06/22 02:03:37;;;;;;;9.95;8.95;;;;;;;17.05;100.00;101766.19;5021523;28;20104;-61
2023/06/22 02:06:08;;;;;;;10.35;9.35;;;;;;;17.09;100.00;101762.66;5026177;28;20030;-61
2023/06/22 02:08:41;;;;;;;11.55;10.02;;;;;;;17.16;100.00;101764.44;5025477;28;20025;-61
2023/06/22 02:11:09;;;;;;;10.85;9.80;;;;;;;17.21;100.00;101758.97;5025800;28;20457;-61
2023/06/22 02:13:36;;;;;;;11.53;10.40;;;;;;;17.20;100.00;101760.91;5011212;28;20040;-61
2023/06/22 02:16:01;;;;;;;10.82;9.73;;;;;;;17.19;100.00;101766.72;5026970;28;20029;-61
2023/06/22 02:18:28;;;;;;;13.73;10.10;;;;;;;17.17;100.00;101760.56;5014263;28;20464;-61
2023/06/22 02:20:53;;;;;;;10.10;9.20;;;;;;;17.15;100.00;101759.97;5010216;28;20029;-61
2023/06/22 02:23:18;;;;;;;10.55;9.60;;;;;;;17.17;100.00;101766.09;5022547;28;20068;-61
2023/06/22 02:25:44;;;;;;;10.75;9.75;;;;;;;17.14;100.00;101763.84;5028665;28;20037;-61
2023/06/22 02:28:09;;;;;;;11.20;10.00;;;;;;;17.13;100.00;101762.97;5027407;28;20041;-61
2023/06/22 02:30:34;;;;;;;10.90;9.90;;;;;;;17.15;100.00;101765.53;5028732;28;20124;-61
2023/06/22 02:33:00;;;;;;;11.10;10.00;;;;;;;17.14;100.00;101758.31;5013075;28;20111;-61
2023/06/22 02:35:26;;;;;;;11.55;9.85;;;;;;;17.12;100.00;101752.97;5080568;22;20144;-61
2023/06/22 02:37:52;;;;;;;10.45;9.45;;;;;;;17.13;100.00;101749.09;5048910;28;20025;-61
2023/06/22 02:40:17;;;;;;;11.18;10.07;;;;;;;17.11;100.00;101749.38;5047701;28;20052;-61
2023/06/22 02:42:43;;;;;;;12.38;11.13;;;;;;;17.12;100.00;101739.94;5047229;28;20463;-61
2023/06/22 02:45:09;;;;;;;11.68;10.63;;;;;;;17.09;100.00;101751.56;5046457;28;20089;-61
2023/06/22 02:47:34;;;;;;;12.90;10.52;;;;;;;17.14;100.00;101747.19;5047563;28;20103;-61
2023/06/22 02:50:00;;;;;;;11.25;10.15;;;;;;;17.12;100.00;101745.50;5045879;28;20040;-61
2023/06/22 02:52:25;;;;;;;11.93;10.82;;;;;;;17.11;100.00;101738.28;5048572;28;20029;-61
2023/06/22 02:54:51;;;;;;;11.70;10.50;;;;;;;17.12;100.00;101739.94;5048590;28;20143;-61
2023/06/22 02:57:16;;;;;;;11.55;10.43;;;;;;;17.09;100.00;101739.63;5046445;28;20111;-61
2023/06/22 02:59:41;;;;;;;11.52;10.43;;;;;;;17.09;100.00;101737.69;5045181;28;20025;-61
2023/06/22 03:02:08;;;;;;;12.35;11.10;;;;;;;17.06;100.00;101735.41;5048069;28;20040;-61
2023/06/22 03:04:34;;;;;;;11.52;10.40;;;;;;;17.08;100.00;101733.25;5047794;28;20031;-61
2023/06/22 03:07:01;;;;;;;11.10;9.98;;;;;;;17.02;100.00;101728.66;5048591;28;20107;-61
2023/06/22 03:09:27;;;;;;;12.13;10.93;;;;;;;17.04;100.00;101726.50;5047930;28;21496;-61
2023/06/22 03:11:54;;;;;;;11.93;10.73;;;;;;;17.03;100.00;101724.84;5048662;28;20017;-61
2023/06/22 03:14:19;;;;;;;12.80;10.90;;;;;;;16.99;100.00;101712.53;5046484;28;20107;-61
2023/06/22 03:16:44;;;;;;;13.23;11.52;;;;;;;17.00;100.00;101710.59;5029061;28;20167;-61
2023/06/22 03:19:10;;;;;;;11.45;10.30;;;;;;;17.01;100.00;101713.13;5046694;28;20025;-61
2023/06/22 03:21:38;;;;;;;11.77;10.68;;;;;;;17.00;100.00;101711.44;5029861;28;20076;-61
2023/06/22 03:24:04;;;;;;;12.05;10.90;;;;;;;16.99;100.00;101709.78;5052581;28;20048;-61
2023/06/22 03:26:29;;;;;;;12.27;11.07;;;;;;;16.99;100.00;101712.53;5058917;28;20409;-61
2023/06/22 03:28:55;;;;;;;13.20;11.90;;;;;;;17.01;100.00;101709.50;5045602;28;20017;-61
2023/06/22 03:31:21;;;;;;;12.57;11.40;;;;;;;16.95;100.00;101711.38;5048002;28;20025;-61
2023/06/22 03:33:48;;;;;;;12.52;11.23;;;;;;;16.99;100.00;101711.72;5047665;28;20450;-61
2023/06/22 03:36:14;;;;;;;12.95;11.38;;;;;;;16.97;100.00;101711.94;5046730;28;20025;-61
2023/06/22 03:38:39;;;;;;;12.77;11.68;;;;;;;16.96;100.00;101707.50;5039628;28;20044;-61
2023/06/22 03:41:04;;;;;;;12.77;11.57;;;;;;;16.97;100.00;101711.94;5047429;28;20025;-61
2023/06/22 03:43:30;;;;;;;13.30;12.00;;;;;;;16.97;100.00;101702.78;5046228;28;20051;-61
2023/06/22 03:45:55;;;;;;;13.93;12.63;;;;;;;17.03;100.00;101708.19;5047547;28;20550;-61
2023/06/22 03:48:20;;;;;;;12.73;11.63;;;;;;;17.05;100.00;101705.13;5046297;28;20799;-61
2023/06/22 03:50:45;;;;;;;14.57;13.13;;;;;;;17.07;100.00;101697.38;5046965;28;20029;-61
2023/06/22 03:53:11;;;;;;;13.18;11.88;;;;;;;17.08;100.00;101699.94;5047417;28;20462;-61
2023/06/22 03:55:36;;;;;;;13.60;12.40;;;;;;;17.11;100.00;101701.34;5067364;28;20037;-61
2023/06/22 03:58:05;;;;;;;13.70;12.38;;;;;;;17.09;100.00;101707.16;5054144;28;20025;-61
2023/06/22 04:00:31;;;;;;;13.15;11.77;;;;;;;17.12;100.00;101701.09;5043102;28;20124;-61
2023/06/22 04:02:56;;;;;;;13.27;11.95;;;;;;;17.15;100.00;101699.75;5027908;28;20021;-62
2023/06/22 04:05:21;;;;;;;14.18;12.88;;;;;;;17.18;100.00;101688.13;5047604;28;20033;-61
2023/06/22 04:07:46;;;;;;;13.52;12.23;;;;;;;17.11;100.00;101687.47;5047713;28;20020;-61
2023/06/22 04:10:12;;;;;;;14.27;12.93;;;;;;;17.13;100.00;101690.81;5047781;28;20033;-61
2023/06/22 04:12:37;;;;;;;14.88;13.48;;;;;;;17.16;100.00;101686.72;5045561;28;20064;-61
2023/06/22 04:15:03;;;;;;;13.77;12.48;;;;;;;17.16;100.00;101690.31;5036236;28;20040;-61
2023/06/22 04:17:28;;;;;;;14.10;12.80;;;;;;;17.17;100.00;101691.16;5047532;28;20535;-62
2023/06/22 04:19:53;;;;;;;14.50;13.10;;;;;;;17.18;100.00;101685.34;5047617;28;20021;-61
2023/06/22 04:22:19;;;;;;;14.02;12.73;;;;;;;17.22;100.00;101685.69;5045478;28;20051;-61
2023/06/22 04:24:44;;;;;;;14.10;12.80;;;;;;;17.29;100.00;101684.41;5045949;28;20025;-61
2023/06/22 04:27:10;;;;;;;13.65;12.25;;;;;;;17.26;100.00;101686.84;5046117;28;20488;-61
2023/06/22 04:29:35;;;;;;;12.95;11.75;;;;;;;17.28;100.00;101693.81;5046016;28;20029;-61
2023/06/22 04:32:05;;;;;;;13.55;12.35;;;;;;;17.30;100.00;101697.19;5044925;28;20040;-61
2023/06/22 04:34:31;;;;;;;12.90;11.70;;;;;;;17.31;100.00;101698.03;5045723;28;20063;-61
2023/06/22 04:36:57;;;;;;;12.52;11.32;;;;;;;17.38;100.00;101695.91;5041069;28;20376;-61
2023/06/22 04:39:23;;;;;;;12.70;11.52;;;;;;;17.41;100.00;101695.41;5046578;28;20085;-61
2023/06/22 04:41:50;;;;;;;13.10;11.80;;;;;;;17.43;100.00;101695.97;5047116;28;20032;-61
2023/06/22 04:44:23;;;;;;;13.57;12.18;;;;;;;17.41;100.00;101706.53;5043616;28;20462;-61
2023/06/22 04:46:53;;;;;;;12.85;11.55;;;;;;;17.48;100.00;101706.34;5045303;28;20367;-60
2023/06/22 04:49:21;;;;;;;14.02;12.55;;;;;;;17.55;100.00;101707.84;5045623;28;20039;-61
2023/06/22 04:51:46;;;;;;;13.23;12.02;;;;;;;17.67;100.00;101696.59;5046258;28;20042;-61
2023/06/22 04:54:11;;;;;;;13.50;12.20;;;;;;;17.75;100.00;101703.69;5043315;28;20041;-61
2023/06/22 04:56:37;;;;;;;14.35;12.82;;;;;;;17.82;100.00;101701.56;5047402;28;20048;-61
2023/06/22 04:59:03;;;;;;;13.55;12.23;;;;;;;17.89;100.00;101705.84;5045402;28;20376;-61
2023/06/22 05:01:30;;;;;;;14.30;12.95;;;;;;;17.96;100.00;101696.44;5024296;28;20513;-61
2023/06/22 05:03:56;;;;;;;13.82;12.43;;;;;;;18.01;100.00;101697.34;5042074;28;20391;-61
2023/06/22 05:06:24;;;;;;;13.30;12.00;;;;;;;18.05;100.00;101701.31;5029402;28;20029;-61
2023/06/22 05:08:57;;;;;;;14.00;12.52;;;;;;;18.10;100.00;101703.31;5042676;28;20035;-61
2023/06/22 05:11:23;;;;;;;14.02;12.60;;;;;;;18.13;100.00;101695.25;5046938;28;20112;-61
2023/06/22 05:13:48;;;;;;;13.77;12.48;;;;;;;18.15;100.00;101697.81;5043372;28;20051;-62
2023/06/22 05:16:13;;;;;;;14.40;13.00;;;;;;;18.24;100.00;101695.38;5045572;28;20064;-61
2023/06/22 05:18:39;;;;;;;14.05;12.65;;;;;;;18.28;100.00;101686.25;5043735;28;20052;-61
2023/06/22 05:21:04;;;;;;;13.77;12.48;;;;;;;18.37;100.00;101700.53;5045304;28;20530;-61
2023/06/22 05:23:29;;;;;;;14.23;12.85;;;;;;;18.43;100.00;101699.47;5044786;28;20033;-61
2023/06/22 05:25:57;;;;;;;13.90;12.50;;;;;;;18.50;100.00;101700.13;5045319;28;20067;-61
2023/06/22 05:28:22;;;;;;;14.20;12.90;;;;;;;18.61;100.00;101696.34;5026133;28;20498;-62
2023/06/22 05:30:48;;;;;;;14.13;12.63;;;;;;;18.61;100.00;101701.06;5044746;28;20029;-61
2023/06/22 05:33:13;;;;;;;13.32;11.93;;;;;;;18.66;100.00;101704.72;5044264;28;20017;-62
2023/06/22 05:35:38;;;;;;;14.00;12.70;;;;;;;18.76;100.00;101705.97;5046111;28;20063;-61
2023/06/22 05:38:04;;;;;;;14.77;13.27;;;;;;;18.71;100.00;101695.63;5045053;28;20056;-62
2023/06/22 05:40:29;;;;;;;14.00;12.80;;;;;;;18.71;100.00;101694.78;5046214;28;20060;-61
2023/06/22 05:42:54;;;;;;;13.75;12.38;;;;;;;18.77;100.00;101688.16;5043354;28;20055;-62
2023/06/22 05:45:20;;;;;;;14.48;13.07;;;;;;;18.73;100.00;101693.41;5043926;28;20032;-61
2023/06/22 05:47:45;;;;;;;13.77;12.57;;;;;;;18.76;100.00;101689.25;5048097;28;20074;-61
2023/06/22 05:50:10;;;;;;;14.90;13.50;;;;;;;18.77;100.00;101694.56;5049600;28;20025;-62
2023/06/22 05:52:35;;;;;;;14.98;13.57;;;;;;;18.84;100.00;101688.75;5049410;28;20160;-61
2023/06/22 05:55:02;;;;;;;15.23;13.73;;;;;;;18.90;100.00;101691.31;5048286;28;20124;-61
2023/06/22 05:57:27;;;;;;;15.90;14.40;;;;;;;18.99;100.00;101702.81;5049998;28;20032;-61
2023/06/22 05:59:53;;;;;;;15.90;14.40;;;;;;;19.09;100.00;101691.75;5047571;28;20369;-61
2023/06/22 06:02:19;;;;;;;15.30;13.93;;;;;;;19.17;100.00;101704.34;5043408;28;20505;-61
2023/06/22 06:04:44;;;;;;;15.07;13.68;;;;;;;19.26;100.00;101690.72;5047966;28;20145;-61
2023/06/22 06:07:09;;;;;;;15.45;14.05;;;;;;;19.35;100.00;101697.47;5045515;28;20031;-62
2023/06/22 06:09:35;;;;;;;15.55;14.20;;;;;;;19.37;100.00;101698.06;5049833;28;20067;-62
2023/06/22 06:12:02;;;;;;;15.57;14.00;;;;;;;19.43;100.00;101703.41;5047891;28;20115;-61
2023/06/22 06:14:28;;;;;;;15.35;13.95;;;;;;;19.54;100.00;101687.56;5046325;28;20090;-62
2023/06/22 06:16:53;;;;;;;16.23;14.68;;;;;;;19.64;100.00;101686.81;5046886;28;20029;-61
2023/06/22 06:19:18;;;;;;;15.60;14.13;;;;;;;19.73;100.00;101678.78;5040660;28;20029;-61
2023/06/22 06:21:44;;;;;;;15.80;14.32;;;;;;;19.74;100.00;101672.94;5048600;28;20047;-61
2023/06/22 06:24:09;;;;;;;16.17;14.10;;;;;;;19.87;100.00;101674.38;5045007;28;20052;-61
2023/06/22 06:26:35;;;;;;;16.38;14.70;;;;;;;19.93;100.00;101670.50;5049744;28;20108;-61
2023/06/22 06:29:02;;;;;;;15.23;13.82;;;;;;;20.02;100.00;101670.78;5048069;28;20435;-62
2023/06/22 06:31:28;;;;;;;16.30;14.80;;;;;;;20.10;100.00;101673.91;5048838;28;20086;-62
2023/06/22 06:33:54;;;;;;;16.15;14.75;;;;;;;20.23;99.25;101671.72;5047454;28;20132;-62
2023/06/22 06:36:20;;;;;;;16.05;14.60;;;;;;;20.25;99.67;101678.69;5043847;28;20053;-61
2023/06/22 06:38:47;;;;;;;15.75;14.18;;;;;;;20.26;100.00;101674.78;5048491;28;20436;-61
2023/06/22 06:41:14;;;;;;;16.90;15.30;;;;;;;20.34;100.00;101681.78;5048207;28;20478;-62
2023/06/22 06:43:39;;;;;;;15.20;13.80;;;;;;;20.44;99.32;101679.84;5045755;28;20043;-62
2023/06/22 06:46:05;;;;;;;15.57;14.18;;;;;;;20.48;98.79;101677.38;5048868;28;20029;-62
2023/06/22 06:48:30;;;;;;;15.90;14.50;;;;;;;20.54;98.64;101678.22;5048386;28;20367;-61
2023/06/22 06:50:55;;;;;;;15.90;14.40;;;;;;;20.58;98.07;101674.59;5047185;28;20036;-62
2023/06/22 06:53:21;;;;;;;16.38;14.93;;;;;;;20.63;99.06;101677.41;5047419;28;20056;-61
2023/06/22 06:55:46;;;;;;;16.25;14.85;;;;;;;20.79;97.47;101680.19;5046888;28;20043;-61
2023/06/22 06:58:13;;;;;;;15.75;14.35;;;;;;;20.84;98.43;101677.41;5047470;28;20414;-61
2023/06/22 07:00:38;;;;;;;16.42;15.02;;;;;;;21.00;99.18;101670.69;5043919;28;20103;-61
2023/06/22 07:03:04;;;;;;;16.05;14.55;;;;;;;21.17;95.54;101671.19;5029079;28;20428;-62
2023/06/22 07:05:29;;;;;;;16.00;14.32;;;;;;;21.25;96.15;101680.97;5030011;28;20033;-61
2023/06/22 07:07:55;;;;;;;15.77;14.45;;;;;;;21.42;94.07;101664.75;5047896;28;20039;-62
2023/06/22 07:10:20;;;;;;;15.52;14.23;;;;;;;21.46;91.64;101662.25;5046181;28;20386;-61
2023/06/22 07:12:46;;;;;;;15.07;13.68;;;;;;;21.48;91.75;101665.56;5059902;28;20122;-62
2023/06/22 07:15:12;;;;;;;15.27;13.88;;;;;;;21.47;92.29;101666.69;5044412;28;20024;-62
2023/06/22 07:17:40;;;;;;;16.73;15.32;;;;;;;21.50;92.03;101658.59;5049219;28;20383;-62
2023/06/22 07:20:08;;;;;;;16.02;14.55;;;;;;;21.56;93.03;101665.00;5047787;28;20021;-62
2023/06/22 07:22:33;;;;;;;;;;;;;;;21.66;92.41;101664.97;5048764;28;20029;-62
2023/06/22 07:24:59;;;;;;;15.57;14.17;;;;;;;21.68;93.75;101659.06;5045289;28;19923;-62
2023/06/22 07:27:24;;;;;;;14.77;13.38;;;;;;;21.78;89.65;101656.25;5048534;28;20491;-62
2023/06/22 07:29:50;;;;;;;15.35;13.85;;;;;;;21.74;90.07;101655.97;5046184;28;20037;-61
2023/06/22 07:32:15;;;;;;;15.43;14.02;;;;;;;21.72;93.67;101658.22;5046980;28;20021;-62
2023/06/22 07:34:41;;;;;;;15.73;14.43;;;;;;;21.76;90.80;101645.34;5047079;28;20037;-62
2023/06/22 07:37:06;;;;;;;14.90;13.60;;;;;;;21.77;92.97;101651.78;5046150;28;20021;-61
2023/06/22 07:39:32;;;;;;;15.57;14.07;;;;;;;21.78;91.46;101647.84;5047940;28;20026;-61
2023/06/22 07:41:57;;;;;;;15.85;14.45;;;;;;;21.76;91.50;101653.75;5047944;28;20017;-61
2023/06/22 07:44:22;;;;;;;14.45;13.25;;;;;;;21.81;91.65;101660.44;5046727;28;20108;-61
2023/06/22 07:46:48;;;;;;;14.10;12.90;;;;;;;21.81;91.09;101657.63;5047487;28;20068;-62
2023/06/22 07:49:13;;;;;;;14.15;12.85;;;;;;;21.80;90.08;101650.38;5047480;28;20490;-61
2023/06/22 07:51:38;;;;;;;13.93;12.63;;;;;;;21.81;91.20;101643.66;5048236;28;20025;-61
2023/06/22 07:54:04;;;;;;;13.20;12.00;;;;;;;21.83;89.09;101633.84;5046481;28;20076;-62
2023/06/22 07:56:29;;;;;;;12.55;11.38;;;;;;;21.82;86.85;101631.34;5032126;28;20036;-62
2023/06/22 07:58:57;;;;;;;11.52;10.43;;;;;;;21.82;85.57;101617.38;5041836;28;21158;-62
2023/06/22 08:01:23;;;;;;;11.52;10.32;;;;;;;21.86;83.89;101616.50;5040776;28;20029;-62
2023/06/22 08:03:48;;;;;;;11.73;10.63;;;;;;;21.85;84.46;101602.81;5037962;28;20020;-61
2023/06/22 08:06:14;;;;;;;11.43;10.32;;;;;;;21.95;85.01;101598.00;5035522;28;20123;-62
2023/06/22 08:08:39;;;;;;;11.38;10.23;;;;;;;22.08;85.15;101595.66;5037890;28;20029;-61
2023/06/22 08:11:05;;;;;;;11.88;10.45;;;;;;;22.25;83.93;101596.13;5040099;28;20479;-61
2023/06/22 08:13:31;;;;;;;11.60;10.50;;;;;;;22.40;82.47;101590.41;5042592;28;20037;-62
2023/06/22 08:15:56;;;;;;;11.27;10.27;;;;;;;22.42;83.73;101581.75;5033547;28;20079;-62
2023/06/22 08:18:22;;;;;;;12.23;10.63;;;;;;;22.56;83.97;101582.75;5042575;28;20427;-61
2023/06/22 08:20:47;;;;;;;12.93;11.68;;;;;;;22.59;82.45;101576.53;5042125;28;20453;-62
2023/06/22 08:23:12;;;;;;;11.52;10.43;;;;;;;22.62;87.13;101575.97;5035846;28;20056;-61
2023/06/22 08:25:38;;;;;;;11.30;10.30;;;;;;;22.66;81.11;101568.66;5043094;28;20044;-62
2023/06/22 08:28:03;;;;;;;11.60;10.60;;;;;;;22.67;78.57;101561.09;5041857;28;20028;-62
2023/06/22 08:30:29;;;;;;;12.20;11.02;;;;;;;22.68;80.62;101559.94;5040622;28;20021;-61
2023/06/22 08:32:55;;;;;;;11.35;10.25;;;;;;;22.77;77.65;101559.00;5041366;28;20033;-62
2023/06/22 08:35:21;;;;;;;11.48;9.57;;;;;;;22.87;77.75;101560.88;5036652;28;20102;-62
2023/06/22 08:37:51;;;;;;;10.95;9.60;;;;;;;22.82;78.69;101569.34;5038774;28;20442;-61
2023/06/22 08:40:17;;;;;;;11.13;9.77;;;;;;;22.90;76.84;101573.47;5042965;28;20029;-62
2023/06/22 08:42:42;;;;;;;10.57;9.43;;;;;;;22.85;76.66;101574.31;5035616;28;20380;-62
2023/06/22 08:45:08;;;;;;;10.75;9.65;;;;;;;22.89;76.19;101577.41;5021844;28;20036;-62
2023/06/22 08:47:33;;;;;;;10.25;9.15;;;;;;;22.83;75.84;101572.97;5035817;28;20048;-62
2023/06/22 08:49:59;;;;;;;9.48;8.57;;;;;;;22.82;76.80;101574.94;5032778;28;20025;-62
2023/06/22 08:52:25;;;;;;;9.38;8.48;;;;;;;22.87;75.63;101576.84;5020808;28;20028;-62
2023/06/22 08:54:51;;;;;;;10.43;9.35;;;;;;;22.83;76.36;101571.00;5040934;28;20063;-62
2023/06/22 08:57:16;;;;;;;11.55;9.63;;;;;;;22.84;79.36;101577.44;5040930;28;20036;-62
2023/06/22 08:59:42;;;;;;;10.35;9.07;;;;;;;22.88;76.59;101576.56;5026625;28;20029;-61
2023/06/22 09:02:08;;;;;;;10.38;9.25;;;;;;;22.86;76.27;101566.75;5038992;28;20024;-62
2023/06/22 09:04:34;;;;;;;9.00;8.10;;;;;;;22.79;74.28;101567.94;5037987;28;20105;-62
2023/06/22 09:07:03;;;;;;;9.75;8.45;;;;;;;22.76;74.31;101559.31;5034510;28;20452;-62
2023/06/22 09:09:28;;;;;;;9.75;8.20;;;;;;;22.75;76.16;101554.81;5043893;28;20112;-62
2023/06/22 09:11:54;;;;;;;9.23;8.23;;;;;;;22.73;75.40;101554.28;5043217;28;20107;-62
2023/06/22 09:14:19;;;;;;;9.10;7.55;;;;;;;22.76;73.52;101543.34;5026426;28;20036;-62
2023/06/22 09:16:44;;;;;;;8.93;8.02;;;;;;;22.70;75.62;101554.88;5043027;28;20574;-62
2023/06/22 09:19:10;;;;;;;9.00;8.05;;;;;;;22.75;73.81;101552.84;5039039;28;20029;-62
2023/06/22 09:21:36;;;;;;;8.85;7.95;;;;;;;22.72;72.47;101549.84;5030485;28;20033;-62
2023/06/22 09:24:01;;;;;;;9.68;7.57;;;;;;;22.68;73.21;101543.16;5040912;28;20112;-62
2023/06/22 09:26:26;;;;;;;9.05;8.13;;;;;;;22.70;73.44;101540.88;5030855;28;20100;-61
2023/06/22 09:28:52;;;;;;;10.27;8.52;;;;;;;22.69;72.56;101542.84;5045633;28;20036;-62
2023/06/22 09:31:17;;;;;;;8.93;8.02;;;;;;;22.64;72.75;101539.25;5046526;28;20070;-62
2023/06/22 09:33:43;;;;;;;10.32;8.45;;;;;;;22.65;72.45;101544.56;5041177;28;20065;-62
2023/06/22 09:36:08;;;;;;;9.63;8.63;;;;;;;22.61;74.95;101539.84;5044667;28;20048;-61
2023/06/22 09:38:37;;;;;;;11.68;9.82;;;;;;;22.59;74.33;101545.75;5041782;28;20472;-62
2023/06/22 09:41:03;;;;;;;11.10;8.55;;;;;;;22.71;71.09;101534.16;5035210;28;20017;-62
2023/06/22 09:43:31;;;;;;;10.43;8.45;;;;;;;22.59;72.62;101542.94;5044839;28;20037;-62
2023/06/22 09:45:56;;;;;;;10.38;9.32;;;;;;;22.61;71.83;101537.91;5047101;28;20474;-62
2023/06/22 09:48:21;;;;;;;10.48;9.13;;;;;;;22.53;73.59;101542.16;5041544;28;20065;-62
2023/06/22 09:50:47;;;;;;;10.15;8.95;;;;;;;22.51;74.30;101544.44;5027043;28;20502;-62
2023/06/22 09:53:12;;;;;;;9.95;8.95;;;;;;;22.51;73.80;101538.00;5043010;28;20100;-62
2023/06/22 09:55:37;;;;;;;9.93;8.93;;;;;;;22.53;72.64;101539.34;5037036;28;20040;-62
2023/06/22 09:58:03;;;;;;;11.20;10.10;;;;;;;22.40;75.32;101531.63;5025531;28;20120;-62
2023/06/22 10:00:28;;;;;;;11.02;9.95;;;;;;;22.35;76.41;101534.47;5026021;28;20429;-62
2023/06/22 10:02:54;;;;;;;10.13;8.95;;;;;;;22.38;75.69;101536.69;5033677;28;20017;-62
2023/06/22 10:05:19;;;;;;;11.10;9.73;;;;;;;22.35;76.64;101534.47;5043974;28;20025;-62
2023/06/22 10:07:44;;;;;;;11.15;9.98;;;;;;;22.28;78.28;101534.81;5046448;28;20039;-62
2023/06/22 10:10:11;;;;;;;11.27;10.18;;;;;;;22.28;79.71;101534.81;5043660;28;20021;-62
2023/06/22 10:12:37;;;;;;;10.75;9.75;;;;;;;22.30;78.84;101530.88;5045390;28;20021;-61
2023/06/22 10:15:03;;;;;;;11.50;10.40;;;;;;;22.32;80.81;101534.25;5045394;28;20041;-61
2023/06/22 10:17:28;;;;;;;11.38;10.27;;;;;;;22.34;81.87;101526.38;5046607;28;20075;-62
2023/06/22 10:19:53;;;;;;;10.93;9.82;;;;;;;22.36;82.66;101533.38;5045887;28;20430;-62
2023/06/22 10:22:19;;;;;;;12.73;10.45;;;;;;;22.34;82.30;101531.97;5044597;28;20017;-61
2023/06/22 10:24:44;;;;;;;11.07;10.07;;;;;;;22.37;83.24;101523.00;5046332;28;20031;-61
2023/06/22 10:27:10;;;;;;;11.93;10.68;;;;;;;22.40;83.89;101530.78;5045358;28;20021;-61
2023/06/22 10:29:36;;;;;;;11.88;10.77;;;;;;;22.39;84.83;101529.13;5044981;28;20029;-61
2023/06/22 10:32:02;;;;;;;11.63;10.45;;;;;;;22.41;82.80;101529.69;5045711;28;20080;-61
2023/06/22 10:34:27;;;;;;;12.27;11.02;;;;;;;22.42;83.64;101525.75;5047901;28;20045;-61
2023/06/22 10:36:53;;;;;;;12.25;11.07;;;;;;;22.41;82.99;101522.13;5048427;28;20036;-61
2023/06/22 10:39:18;;;;;;;12.88;11.57;;;;;;;22.43;83.37;101516.22;5048605;28;20029;-62
2023/06/22 10:41:44;;;;;;;12.88;11.57;;;;;;;22.45;84.64;101525.16;5048554;28;20361;-62
2023/06/22 10:44:09;;;;;;;12.50;11.40;;;;;;;22.40;83.95;101528.00;5048194;28;20399;-61
2023/06/22 10:46:34;;;;;;;12.68;11.48;;;;;;;22.37;85.67;101531.41;5048825;28;20033;-62
2023/06/22 10:49:00;;;;;;;11.82;10.63;;;;;;;22.33;83.54;101533.13;5049493;28;20029;-61
2023/06/22 10:51:25;;;;;;;11.85;10.77;;;;;;;22.33;83.83;101533.13;5047739;28;20037;-61
2023/06/22 10:53:51;;;;;;;12.15;10.95;;;;;;;22.27;84.21;101544.34;5046201;28;20052;-61
2023/06/22 10:56:18;;;;;;;11.63;10.43;;;;;;;22.22;83.29;101552.78;5054142;28;20024;-62
2023/06/22 10:58:45;;;;;;;11.80;10.57;;;;;;;22.24;82.63;101550.50;5048944;28;20033;-61
2023/06/22 11:01:10;;;;;;;10.93;9.93;;;;;;;22.23;83.18;101550.81;5048065;28;20025;-61
2023/06/22 11:03:35;;;;;;;11.60;10.50;;;;;;;22.23;84.58;101556.41;5049058;28;20017;-62
2023/06/22 11:06:00;;;;;;;11.65;9.90;;;;;;;22.21;84.62;101556.72;5037529;28;20082;-61